Mingo, West Virginia
Current Conditions -  °F | °C
As of 11:51 PM on Thursday 20 Nov 2014 (Local Time) from KEKN Reporting Station
Overcast Overcast  
Wind Chill: 14°   Ceiling: 3000
Heat Index: 24°   Visibility: 10mi
Dew Point: 14°   Wind: 10mph
Humidity: 65%   Direction: 270°W
Pressure: 30.14"   Gusts: 20mph
Location:  38.5201°N, 80.0382°W
Report Text: KEKN 210451Z AUTO 27009G17KT 10SM BKN030 OVC041 M04/M10 A3014 RMK AO2 SLP233 T10441100 400441044 TSNO
Loading
Personal Weather Stations






























Interactive Weather Map New forecast layout! Learn more

10-Day Weather Forecast

Advertisements
Track Severe Weather on mobile